createdAt,value
2018-07-16T00:01:07.923Z,101659.44
2018-07-16T00:04:10.029Z,101661.28
2018-07-16T00:07:12.362Z,101657.26
2018-07-16T00:10:14.349Z,101655.95
2018-07-16T00:13:17.192Z,101657.10
2018-07-16T00:16:19.341Z,101654.62
2018-07-16T00:19:21.535Z,101660.87
2018-07-16T00:22:23.615Z,101659.04
2018-07-16T00:25:31.670Z,101654.81
2018-07-16T00:28:33.842Z,101659.26
2018-07-16T00:31:35.888Z,101664.87
2018-07-16T00:34:37.892Z,101667.65
2018-07-16T00:37:40.064Z,101668.92
2018-07-16T00:40:42.236Z,101668.30
2018-07-16T00:43:44.309Z,101671.15
2018-07-16T00:46:47.612Z,101676.39
2018-07-16T00:49:49.764Z,101684.72
2018-07-16T00:52:51.732Z,101695.84
2018-07-16T00:55:53.792Z,101701.14
2018-07-16T00:58:55.900Z,101707.47
2018-07-16T01:01:57.867Z,101714.14
2018-07-16T01:04:59.945Z,101713.65
2018-07-16T01:08:02.089Z,101719.71
2018-07-16T01:11:04.179Z,101717.03
2018-07-16T01:14:06.268Z,101717.19
2018-07-16T01:17:08.444Z,101719.92
2018-07-16T01:20:10.691Z,101718.26
2018-07-16T01:23:12.912Z,101722.24
2018-07-16T01:26:17.088Z,101721.07
2018-07-16T01:29:19.262Z,101717.93
2018-07-16T01:32:21.439Z,101718.70
2018-07-16T01:35:23.520Z,101715.65
2018-07-16T01:38:25.581Z,101717.46
2018-07-16T01:41:27.612Z,101721.72
2018-07-16T01:44:29.687Z,101719.66
2018-07-16T01:47:31.815Z,101716.86
2018-07-16T01:50:33.832Z,101713.91
2018-07-16T01:53:35.956Z,101713.56
2018-07-16T01:56:38.090Z,101707.39
2018-07-16T01:59:40.148Z,101706.71
2018-07-16T02:02:42.126Z,101706.47
2018-07-16T02:05:44.175Z,101700.40
2018-07-16T02:08:47.529Z,101694.31
2018-07-16T02:11:49.696Z,101694.47
2018-07-16T02:14:51.829Z,101684.82
2018-07-16T02:17:53.892Z,101688.61
2018-07-16T02:20:56.993Z,101679.88
2018-07-16T02:23:59.092Z,101687.05
2018-07-16T02:27:01.192Z,101677.90
2018-07-16T02:30:03.760Z,101681.38
2018-07-16T02:33:05.940Z,101676.65
2018-07-16T02:36:08.000Z,101673.21
2018-07-16T02:39:10.064Z,101673.40
2018-07-16T02:42:12.216Z,101670.58
2018-07-16T02:45:14.276Z,101667.87
2018-07-16T02:48:17.127Z,101659.65
2018-07-16T02:51:19.281Z,101652.67
2018-07-16T02:54:21.412Z,101653.06
2018-07-16T02:57:23.484Z,101648.60
2018-07-16T03:00:25.655Z,101647.47
2018-07-16T03:03:27.620Z,101648.61
2018-07-16T03:06:29.685Z,101642.36
2018-07-16T03:09:31.871Z,101638.98
2018-07-16T03:12:33.928Z,101638.15
2018-07-16T03:15:36.024Z,101633.94
2018-07-16T03:18:38.185Z,101630.79
2018-07-16T03:21:40.399Z,101630.18
2018-07-16T03:24:42.744Z,101626.37
2018-07-16T03:27:44.877Z,101622.98
2018-07-16T03:30:48.102Z,101624.17
2018-07-16T03:33:50.307Z,101616.48
2018-07-16T03:36:52.421Z,101610.85
2018-07-16T03:39:54.499Z,101604.59
2018-07-16T03:42:56.517Z,101595.82
2018-07-16T03:45:58.683Z,101596.27
2018-07-16T03:49:00.855Z,101592.68
2018-07-16T03:52:02.921Z,101587.56
2018-07-16T03:55:05.057Z,101584.66
2018-07-16T03:58:07.156Z,101582.09
2018-07-16T04:01:09.096Z,101582.30
2018-07-16T04:04:11.291Z,101581.99
2018-07-16T04:07:14.392Z,101590.64
2018-07-16T04:10:17.444Z,101591.82
2018-07-16T04:13:19.532Z,101603.71
2018-07-16T04:16:21.576Z,101612.44
2018-07-16T04:19:23.756Z,101621.20
2018-07-16T04:22:25.827Z,101615.89
2018-07-16T04:25:27.917Z,101613.07
2018-07-16T04:28:30.060Z,101608.68
2018-07-16T04:31:32.211Z,101614.84
2018-07-16T04:34:34.293Z,101612.72
2018-07-16T04:37:36.604Z,101612.15
2018-07-16T04:40:38.744Z,101610.25
2018-07-16T04:43:40.706Z,101619.27
2018-07-16T04:46:42.787Z,101612.83
2018-07-16T04:49:45.052Z,101616.73
2018-07-16T04:52:48.299Z,101616.16
2018-07-16T04:55:50.410Z,101619.35
2018-07-16T04:58:52.548Z,101617.26
2018-07-16T05:01:54.671Z,101616.48
2018-07-16T05:04:56.730Z,101616.49
2018-07-16T05:07:58.881Z,101612.11
2018-07-16T05:11:01.052Z,101609.22
2018-07-16T05:14:03.213Z,101609.44
2018-07-16T05:17:13.166Z,101610.18
2018-07-16T05:20:15.244Z,101619.85
2018-07-16T05:23:18.343Z,101621.88
2018-07-16T05:26:21.473Z,101622.11
2018-07-16T05:29:23.547Z,101623.72
2018-07-16T05:32:25.899Z,101619.20
2018-07-16T05:35:28.840Z,101623.25
2018-07-16T05:38:32.013Z,101624.00
2018-07-16T05:41:34.415Z,101626.61
2018-07-16T05:44:36.440Z,101630.12
2018-07-16T05:47:38.616Z,101630.37
2018-07-16T05:50:40.729Z,101634.40
2018-07-16T05:53:42.760Z,101642.98
2018-07-16T05:56:44.745Z,101641.53
2018-07-16T05:59:47.604Z,101640.93
2018-07-16T06:02:49.762Z,101633.46
2018-07-16T06:05:51.844Z,101639.72
2018-07-16T06:08:54.101Z,101633.64
2018-07-16T06:11:56.183Z,101636.30
2018-07-16T06:14:58.528Z,101637.86
2018-07-16T06:18:00.579Z,101636.54
2018-07-16T06:21:02.524Z,101638.27
2018-07-16T06:24:04.977Z,101636.86
2018-07-16T06:27:07.055Z,101638.96
2018-07-16T06:30:09.172Z,101640.75
2018-07-16T06:33:11.337Z,101641.18
2018-07-16T06:36:13.336Z,101641.02
2018-07-16T06:39:15.311Z,101640.11
2018-07-16T06:42:18.512Z,101639.13
2018-07-16T06:45:20.634Z,101636.17
2018-07-16T06:48:22.713Z,101634.35
2018-07-16T06:51:24.813Z,101629.19
2018-07-16T06:54:26.952Z,101630.79
2018-07-16T06:57:28.995Z,101634.60
2018-07-16T07:00:30.987Z,101632.21
2018-07-16T07:03:33.097Z,101629.07
2018-07-16T07:06:35.125Z,101628.36
2018-07-16T07:09:37.111Z,101622.17
2018-07-16T07:12:39.225Z,101627.60
2018-07-16T07:15:41.323Z,101631.32
2018-07-16T07:18:43.452Z,101629.08
2018-07-16T07:21:45.502Z,101633.17
2018-07-16T07:24:48.511Z,101629.49
2018-07-16T07:27:50.473Z,101624.82
2018-07-16T07:30:52.499Z,101623.67
2018-07-16T07:33:54.589Z,101621.77
2018-07-16T07:36:56.724Z,101620.61
2018-07-16T07:39:58.845Z,101619.69
2018-07-16T07:43:00.968Z,101617.12
2018-07-16T07:46:03.165Z,101623.01
2018-07-16T07:49:05.343Z,101619.61
2018-07-16T07:52:07.421Z,101617.64
2018-07-16T07:55:09.898Z,101616.47
2018-07-16T07:58:11.728Z,101613.20
2018-07-16T08:01:13.742Z,101610.44
2018-07-16T08:04:15.915Z,101609.58
2018-07-16T08:07:19.112Z,101609.69
2018-07-16T08:10:21.110Z,101605.29
2018-07-16T08:13:23.242Z,101607.44
2018-07-16T08:16:25.270Z,101604.79
2018-07-16T08:19:27.345Z,101598.49
2018-07-16T08:22:29.544Z,101594.03
2018-07-16T08:25:31.626Z,101597.03
2018-07-16T08:28:33.712Z,101600.16
2018-07-16T08:31:35.867Z,101598.39
2018-07-16T08:34:37.941Z,101600.71
2018-07-16T08:37:39.944Z,101597.83
2018-07-16T08:40:42.039Z,101598.55
2018-07-16T08:43:44.042Z,101599.33
2018-07-16T08:46:47.161Z,101598.65
2018-07-16T08:49:50.241Z,101600.51
2018-07-16T08:52:52.446Z,101599.44
2018-07-16T08:55:54.460Z,101600.56
2018-07-16T08:58:56.508Z,101607.41
2018-07-16T09:01:58.701Z,101598.20
2018-07-16T09:05:00.985Z,101594.10
2018-07-16T09:08:03.063Z,101592.70
2018-07-16T09:11:05.401Z,101601.51
2018-07-16T09:14:07.455Z,101602.98
2018-07-16T09:17:09.921Z,101594.35
2018-07-16T09:20:11.919Z,101593.89
2018-07-16T09:23:14.019Z,101590.57
2018-07-16T09:26:16.112Z,101579.09
2018-07-16T09:29:20.093Z,101578.83
2018-07-16T09:32:22.184Z,101571.78
2018-07-16T09:35:24.346Z,101562.17
2018-07-16T09:38:26.432Z,101555.49
2018-07-16T09:41:28.585Z,101552.29
2018-07-16T09:44:30.645Z,101551.05
2018-07-16T09:47:32.798Z,101549.29
2018-07-16T09:50:34.938Z,101543.38
2018-07-16T09:53:37.080Z,101544.40
2018-07-16T09:56:39.254Z,101530.44
2018-07-16T09:59:41.538Z,101530.67
2018-07-16T10:02:43.710Z,101531.88
2018-07-16T10:05:45.753Z,101524.61
2018-07-16T10:08:47.866Z,101516.26
2018-07-16T10:11:50.651Z,101509.12
2018-07-16T10:14:52.805Z,101503.59
2018-07-16T10:17:55.046Z,101497.76
2018-07-16T10:20:57.044Z,101500.47
2018-07-16T10:23:59.074Z,101503.24
2018-07-16T10:27:01.085Z,101494.89
2018-07-16T10:30:03.276Z,101499.16
2018-07-16T10:33:05.394Z,101495.40
2018-07-16T10:36:07.511Z,101502.28
2018-07-16T10:39:09.529Z,101503.28
2018-07-16T10:42:11.820Z,101496.12
2018-07-16T10:45:13.898Z,101499.11
2018-07-16T10:48:16.105Z,101490.45
2018-07-16T10:51:18.157Z,101491.10
2018-07-16T10:54:21.234Z,101488.22
2018-07-16T10:57:23.441Z,101487.83
2018-07-16T11:00:26.040Z,101490.78
2018-07-16T11:03:28.165Z,101489.15
2018-07-16T11:06:30.348Z,101488.29
2018-07-16T11:09:32.296Z,101478.95
2018-07-16T11:12:34.438Z,101472.09
2018-07-16T11:15:36.516Z,101475.79
2018-07-16T11:18:38.593Z,101473.31
2018-07-16T11:21:40.696Z,101463.07
2018-07-16T11:24:42.746Z,101461.91
2018-07-16T11:27:44.695Z,101459.61
2018-07-16T11:30:46.760Z,101462.77
2018-07-16T11:33:50.140Z,101451.55
2018-07-16T11:36:52.436Z,101448.01
2018-07-16T11:39:54.408Z,101444.59
2018-07-16T11:42:56.461Z,101442.99
2018-07-16T11:45:58.552Z,101434.28
2018-07-16T11:49:00.512Z,101436.85
2018-07-16T11:52:02.536Z,101433.73
2018-07-16T11:55:05.667Z,101427.81
2018-07-16T11:58:07.855Z,101421.62
2018-07-16T12:01:09.938Z,101415.62
2018-07-16T12:04:11.888Z,101405.10
2018-07-16T12:07:14.994Z,101403.82
2018-07-16T12:10:17.149Z,101397.72
2018-07-16T12:13:20.520Z,101394.20
2018-07-16T12:16:22.727Z,101394.13
2018-07-16T12:19:24.877Z,101390.29
2018-07-16T12:22:26.944Z,101389.78
2018-07-16T12:25:29.011Z,101384.02
2018-07-16T12:28:31.053Z,101377.98
2018-07-16T12:31:33.120Z,101366.85
2018-07-16T12:34:35.116Z,101367.46
2018-07-16T12:37:37.229Z,101365.22
2018-07-16T12:40:39.501Z,101365.92
2018-07-16T12:43:41.467Z,101362.91
2018-07-16T12:46:43.641Z,101357.91
2018-07-16T12:49:45.795Z,101349.02
2018-07-16T12:52:47.793Z,101347.16
2018-07-16T12:55:51.104Z,101335.99
2018-07-16T12:58:53.140Z,101334.43
2018-07-16T13:01:55.139Z,101324.96
2018-07-16T13:04:57.258Z,101320.17
2018-07-16T13:07:59.496Z,101317.96
2018-07-16T13:11:01.590Z,101316.64
2018-07-16T13:14:03.658Z,101309.44
2018-07-16T13:17:05.799Z,101309.07
2018-07-16T13:20:07.909Z,101307.02
2018-07-16T13:23:10.162Z,101306.19
2018-07-16T13:26:12.556Z,101303.83
2018-07-16T13:29:14.636Z,101305.91
2018-07-16T13:32:16.657Z,101303.12
2018-07-16T13:35:18.764Z,101305.21
2018-07-16T13:38:21.760Z,101308.49
2018-07-16T13:41:23.855Z,101305.75
2018-07-16T13:44:25.990Z,101307.46
2018-07-16T13:47:28.016Z,101300.50
2018-07-16T13:50:30.253Z,101299.94
2018-07-16T13:53:32.411Z,101293.50
2018-07-16T13:56:34.480Z,101287.76
2018-07-16T13:59:36.639Z,101287.81
2018-07-16T14:02:38.606Z,101287.04
2018-07-16T14:05:40.685Z,101283.18
2018-07-16T14:08:42.773Z,101276.09
2018-07-16T14:11:44.997Z,101264.62
2018-07-16T14:14:47.115Z,101261.08
2018-07-16T14:17:49.305Z,101260.55
2018-07-16T14:20:52.463Z,101253.02
2018-07-16T14:23:54.667Z,101251.84
2018-07-16T14:26:56.855Z,101252.79
2018-07-16T14:29:58.936Z,101245.24
2018-07-16T14:33:00.951Z,101238.49
2018-07-16T14:36:02.991Z,101236.00
2018-07-16T14:39:06.373Z,101237.76
2018-07-16T14:42:08.484Z,101236.45
2018-07-16T14:45:10.665Z,101239.61
2018-07-16T14:48:12.721Z,101237.92
2018-07-16T14:51:15.027Z,101232.55
2018-07-16T14:54:17.154Z,101228.23
2018-07-16T14:57:19.350Z,101229.76
2018-07-16T15:00:22.661Z,101226.85
2018-07-16T15:03:24.808Z,101228.16
2018-07-16T15:06:26.882Z,101224.14
2018-07-16T15:09:29.059Z,101216.87
2018-07-16T15:12:31.048Z,101215.65
2018-07-16T15:15:33.071Z,101215.59
2018-07-16T15:18:35.253Z,101219.06
2018-07-16T15:21:37.439Z,101218.20
2018-07-16T15:24:39.373Z,101217.09
2018-07-16T15:27:41.532Z,101215.72
2018-07-16T15:30:43.698Z,101216.67
2018-07-16T15:33:45.957Z,101212.80
2018-07-16T15:36:48.223Z,101208.19
2018-07-16T15:39:50.453Z,101210.82
2018-07-16T15:42:53.738Z,101203.49
2018-07-16T15:45:55.863Z,101200.48
2018-07-16T15:48:58.136Z,101197.37
2018-07-16T15:52:00.279Z,101190.02
2018-07-16T15:55:02.436Z,101185.10
2018-07-16T15:58:04.646Z,101184.11
2018-07-16T16:01:06.790Z,101185.28
2018-07-16T16:04:08.810Z,101189.96
2018-07-16T16:07:10.911Z,101185.87
2018-07-16T16:10:12.973Z,101185.65
2018-07-16T16:13:14.945Z,101178.28
2018-07-16T16:16:17.066Z,101183.84
2018-07-16T16:19:19.055Z,101183.18
2018-07-16T16:22:22.309Z,101187.71
2018-07-16T16:25:24.379Z,101186.93
2018-07-16T16:28:26.605Z,101192.06
2018-07-16T16:31:28.792Z,101187.91
2018-07-16T16:34:31.103Z,101189.64
2018-07-16T16:37:33.253Z,101191.71
2018-07-16T16:40:35.410Z,101195.06
2018-07-16T16:43:37.508Z,101191.58
2018-07-16T16:46:39.524Z,101196.86
2018-07-16T16:49:41.504Z,101197.21
2018-07-16T16:52:43.618Z,101196.15
2018-07-16T16:55:45.660Z,101193.22
2018-07-16T16:58:47.823Z,101195.88
2018-07-16T17:01:49.898Z,101200.12
2018-07-16T17:04:52.970Z,101198.95
2018-07-16T17:07:55.047Z,101195.92
2018-07-16T17:10:57.136Z,101192.17
2018-07-16T17:13:59.295Z,101188.51
2018-07-16T17:17:01.508Z,101192.71
2018-07-16T17:20:03.618Z,101190.22
2018-07-16T17:23:05.829Z,101190.32
2018-07-16T17:26:08.051Z,101189.17
2018-07-16T17:29:10.019Z,101187.33
2018-07-16T17:32:12.100Z,101193.01
2018-07-16T17:35:14.104Z,101194.50
2018-07-16T17:38:16.167Z,101198.28
2018-07-16T17:41:18.213Z,101197.69
2018-07-16T17:44:20.217Z,101194.61
2018-07-16T17:47:22.365Z,101205.89
2018-07-16T17:50:24.426Z,101210.93
2018-07-16T17:53:27.540Z,101247.99
2018-07-16T17:56:29.572Z,101266.17
2018-07-16T17:59:31.623Z,101264.01
2018-07-16T18:02:33.632Z,101281.50
2018-07-16T18:05:35.815Z,101296.90
2018-07-16T18:08:37.751Z,101305.65
2018-07-16T18:11:39.909Z,101302.74
2018-07-16T18:14:42.713Z,101293.78
2018-07-16T18:17:44.768Z,101302.37
2018-07-16T18:20:46.855Z,101295.35
2018-07-16T18:23:49.167Z,101292.86
2018-07-16T18:26:51.164Z,101297.29
2018-07-16T18:29:53.294Z,101299.73
2018-07-16T18:32:55.355Z,101307.38
2018-07-16T18:35:57.496Z,101309.53
2018-07-16T18:38:59.667Z,101313.36
2018-07-16T18:42:01.782Z,101322.54
2018-07-16T18:45:04.044Z,101325.61
2018-07-16T18:48:06.115Z,101347.50
2018-07-16T18:51:08.344Z,101356.19
2018-07-16T18:54:10.455Z,101359.88
2018-07-16T18:57:13.510Z,101365.63
2018-07-16T19:00:16.703Z,101368.31
2018-07-16T19:03:19.129Z,101369.43
2018-07-16T19:06:21.147Z,101375.59
2018-07-16T19:09:23.268Z,101377.77
2018-07-16T19:12:25.271Z,101381.26
2018-07-16T19:15:28.020Z,101380.44
2018-07-16T19:18:29.978Z,101374.08
2018-07-16T19:21:32.160Z,101370.18
2018-07-16T19:24:34.330Z,101365.33
2018-07-16T19:27:36.467Z,101365.21
2018-07-16T19:30:38.616Z,101367.19
2018-07-16T19:33:40.685Z,101368.59
2018-07-16T19:36:43.079Z,101370.12
2018-07-16T19:39:45.203Z,101371.84
2018-07-16T19:42:47.251Z,101381.36
2018-07-16T19:45:49.343Z,101381.45
2018-07-16T19:48:51.440Z,101386.06
2018-07-16T19:51:53.516Z,101384.41
2018-07-16T19:54:55.741Z,101380.44
2018-07-16T19:57:58.017Z,101377.84
2018-07-16T20:00:59.964Z,101381.52
2018-07-16T20:04:02.138Z,101380.02
2018-07-16T20:07:04.376Z,101389.16
2018-07-16T20:10:06.592Z,101383.52
2018-07-16T20:13:08.609Z,101385.85
2018-07-16T20:16:11.948Z,101384.88
2018-07-16T20:19:14.004Z,101385.18
2018-07-16T20:22:16.327Z,101386.32
2018-07-16T20:25:18.431Z,101389.15
2018-07-16T20:28:20.532Z,101385.24
2018-07-16T20:31:22.544Z,101387.76
2018-07-16T20:34:24.688Z,101389.31
2018-07-16T20:37:26.812Z,101393.32
2018-07-16T20:40:28.927Z,101394.73
2018-07-16T20:43:31.076Z,101394.48
2018-07-16T20:46:33.262Z,101394.57
2018-07-16T20:49:35.407Z,101391.78
2018-07-16T20:52:37.420Z,101395.01
2018-07-16T20:55:39.523Z,101389.66
2018-07-16T20:58:42.890Z,101394.64
2018-07-16T21:01:45.028Z,101398.51
2018-07-16T21:04:47.088Z,101399.95
2018-07-16T21:07:49.349Z,101402.21
2018-07-16T21:10:51.418Z,101403.18
2018-07-16T21:13:53.633Z,101402.44
2018-07-16T21:16:56.012Z,101407.40
2018-07-16T21:19:58.123Z,101403.11
2018-07-16T21:23:00.212Z,101405.12
2018-07-16T21:26:02.507Z,101404.71
2018-07-16T21:29:06.821Z,101408.04
2018-07-16T21:32:08.806Z,101410.08
2018-07-16T21:35:10.976Z,101413.76
2018-07-16T21:38:14.225Z,101416.40
2018-07-16T21:41:16.577Z,101415.59
2018-07-16T21:44:18.652Z,101417.85
2018-07-16T21:47:20.725Z,101416.45
2018-07-16T21:50:22.919Z,101418.29
2018-07-16T21:53:24.843Z,101421.58
2018-07-16T21:56:27.052Z,101423.96
2018-07-16T21:59:29.148Z,101421.03
2018-07-16T22:02:31.177Z,101429.87
2018-07-16T22:05:33.338Z,101424.97
2018-07-16T22:08:35.554Z,101424.28
2018-07-16T22:11:37.658Z,101432.99
2018-07-16T22:14:39.613Z,101442.08
2018-07-16T22:17:41.716Z,101453.50
2018-07-16T22:20:44.000Z,101463.66
2018-07-16T22:23:46.089Z,101470.04
2018-07-16T22:26:48.108Z,101465.65
2018-07-16T22:29:50.194Z,101463.90
2018-07-16T22:32:52.160Z,101465.96
2018-07-16T22:35:54.245Z,101466.77
2018-07-16T22:38:57.409Z,101470.89
2018-07-16T22:41:59.532Z,101465.89
2018-07-16T22:45:01.728Z,101470.33
2018-07-16T22:48:03.969Z,101472.59
2018-07-16T22:51:06.013Z,101481.41
2018-07-16T22:54:08.232Z,101487.94
2018-07-16T22:57:10.400Z,101489.49
2018-07-16T23:00:12.516Z,101493.26
2018-07-16T23:03:14.724Z,101495.56
2018-07-16T23:06:16.908Z,101497.06
2018-07-16T23:09:18.959Z,101506.05
2018-07-16T23:12:20.964Z,101505.72
2018-07-16T23:15:23.925Z,101505.24
2018-07-16T23:18:26.059Z,101502.14
2018-07-16T23:21:28.123Z,101512.38
2018-07-16T23:24:30.202Z,101508.46
2018-07-16T23:27:32.274Z,101507.49
2018-07-16T23:30:34.327Z,101507.31
2018-07-16T23:33:36.279Z,101509.05
2018-07-16T23:36:38.531Z,101519.30
2018-07-16T23:39:40.799Z,101525.15
2018-07-16T23:42:44.040Z,101524.14
2018-07-16T23:45:46.143Z,101526.41
2018-07-16T23:48:49.211Z,101524.10
2018-07-16T23:51:51.543Z,101523.02
2018-07-16T23:54:53.652Z,101516.15
2018-07-16T23:57:55.725Z,101522.87
